This is the latest recevied weather packets stored in our database for station/object KA6UPU-1. If no packets are shown the sender has not sent any weather packets the latest 10 day(s).
| Time | Temp. | Humidity | Pressure | Rain* | Wind** | Luminosity | Snow |
|---|---|---|---|---|---|---|---|
| 1777316327 | 17.78° C | 52% | 1016.9 hPa | 0 mm | - | - | - |
| 1777316027 | 18.33° C | 53% | 1017 hPa | 0 mm | - | - | - |
| 1777315727 | 17.78° C | 55% | 1017 hPa | 0 mm | - | - | - |
| 1777315127 | 16.11° C | 59% | 1017 hPa | 0 mm | - | - | - |
| 1777314827 | 16.11° C | 59% | 1016.9 hPa | 0 mm | - | - | - |
| 1777314227 | 16.67° C | 58% | 1016.8 hPa | 0 mm | - | - | - |
| 1777314009 | 16.67° C | 58% | 1016.8 hPa | 0 mm | - | - | - |
| 1777313927 | 16.67° C | 58% | 1016.8 hPa | 0 mm | - | - | - |
| 1777313627 | 17.22° C | 57% | 1016.7 hPa | 0 mm | - | - | - |
| 1777313327 | 17.22° C | 56% | 1016.7 hPa | 0 mm | - | - | - |
| 1777313027 | 17.78° C | 57% | 1016.7 hPa | 0 mm | - | - | - |
| 1777312727 | 17.78° C | 54% | 1016.7 hPa | 0 mm | - | - | - |
| 1777312427 | 17.78° C | 56% | 1016.7 hPa | 0 mm | - | - | - |
| 1777312127 | 17.78° C | 55% | 1016.7 hPa | 0 mm | - | - | - |
| 1777311827 | 17.22° C | 57% | 1016.7 hPa | 0 mm | - | - | - |
| 1777311527 | 16.67° C | 59% | 1016.8 hPa | 0 mm | - | - | - |
| 1777311227 | 16.67° C | 58% | 1016.7 hPa | 0 mm | - | - | - |
| 1777310927 | 16.11° C | 60% | 1016.7 hPa | 0 mm | - | - | - |
| 1777310627 | 16.11° C | 60% | 1016.7 hPa | 0 mm | - | - | - |
| 1777310327 | 16.11° C | 59% | 1016.7 hPa | 0 mm | - | - | - |
| 1777310027 | 16.11° C | 61% | 1016.8 hPa | 0 mm | - | - | - |
| 1777309727 | 16.11° C | 62% | 1016.7 hPa | 0 mm | - | - | - |
| 1777309427 | 16.11° C | 62% | 1016.7 hPa | 0 mm | - | - | - |
| 1777309127 | 15° C | 63% | 1016.6 hPa | 0 mm | - | - | - |
| 1777307927 | 15° C | 65% | 1016.5 hPa | 0 mm | - | - | - |
* Rain latest hour (hover to see other rain measurements)
** Current wind speed in m/s (hover to see current wind gust speed)